This is the latest recevied weather packets stored in our database for station/object W5DRO-13. If no packets are shown the sender has not sent any weather packets the latest 10 day(s).
| Time | Temp. | Humidity | Pressure | Rain* | Wind** | Luminosity | Snow |
|---|---|---|---|---|---|---|---|
| 1777761505 | 25.56° C | 34% | 1019.9 hPa | 0 mm | - | - | - |
| 1777761203 | 24.44° C | 37% | 1019.7 hPa | 0 mm | - | - | - |
| 1777760901 | 23.33° C | 36% | 1019.7 hPa | 0 mm | - | - | - |
| 1777760598 | 22.78° C | 39% | 1019.9 hPa | 0 mm | - | - | - |
| 1777760294 | 22.78° C | 38% | 1020 hPa | 0 mm | - | - | - |
| 1777759990 | 22.22° C | 39% | 1020 hPa | 0 mm | - | - | - |
| 1777759688 | 22.22° C | 43% | 1019.9 hPa | 0 mm | - | - | - |
| 1777759383 | 22.78° C | 40% | 1019.8 hPa | 0 mm | - | - | - |
| 1777759080 | 22.78° C | 38% | 1019.9 hPa | 0 mm | - | - | - |
| 1777758777 | 22.22° C | 39% | 1020.2 hPa | 0 mm | - | - | - |
| 1777758474 | 22.78° C | 37% | 1020 hPa | 0 mm | - | - | - |
| 1777758171 | 23.89° C | 35% | 1020.1 hPa | 0 mm | - | - | - |
| 1777757868 | 25° C | 36% | 1020.1 hPa | 0 mm | - | - | - |
| 1777757565 | 26.67° C | 32% | 1020.2 hPa | 0 mm | - | - | - |
| 1777757264 | 26.67° C | 32% | 1020.3 hPa | 0 mm | - | - | - |
| 1777756962 | 26.11° C | 32% | 1020.1 hPa | 0 mm | - | - | - |
| 1777756657 | 25.56° C | 33% | 1020.3 hPa | 0 mm | - | - | - |
| 1777756355 | 26.67° C | 30% | 1020.4 hPa | 0 mm | - | - | - |
| 1777756052 | 26.67° C | 33% | 1020.6 hPa | 0 mm | - | - | - |
| 1777755749 | 26.11° C | 32% | 1020.6 hPa | 0 mm | - | - | - |
| 1777755446 | 25.56° C | 34% | 1020.7 hPa | 0 mm | - | - | - |
| 1777755142 | 26.11° C | 32% | 1020.7 hPa | 0 mm | - | - | - |
| 1777754839 | 25° C | 35% | 1020.8 hPa | 0 mm | - | - | - |
| 1777754537 | 25° C | 35% | 1020.9 hPa | 0 mm | - | - | - |
| 1777754234 | 24.44° C | 33% | 1020.9 hPa | 0 mm | - | - | - |
* Rain latest hour (hover to see other rain measurements)
** Current wind speed in m/s (hover to see current wind gust speed)